x

Boston 16 Nm East Of Boston, Ma (44013) Wave Buoy

9:50pm - Thu 8th Dec 2016 All times are EST. -5 hours from GMT.

  • Sig Wave height 3.6ft
  • Swell Direction
  • Peak Period 4s
  • Average Period 4s
  • Wind
    29mph, 36mph gusts
  • Sea Temp 50°f
  • 空気 Temp 40°f
  • Sea Pressure 1008mb
  • Boston 16 Nm East Of Boston, Ma
  • Boston 16 Nm East Of Boston, Ma

More Historic Weather Station data

Upgrade to MSW Pro to gain access to the past 30 days of data for over 8000 Wavebouys and Weather Stations around the globe.

Join Pro

Comparision Forecast

View Surf forecast
   
Thu 12/08 9:50pm 3.5ft 4s 4s 29 36 mph 1008mb 50f 40f
8:50pm 4ft 4s 4s 29 36 mph 1007.7mb 50f 40f
7:50pm 3ft 4s 4s 31 38 mph 1007.5mb 50f 42f
6:50pm 2.5ft 4s 4s 27 34 mph 1007.8mb 50f 42f
5:50pm 2.5ft 4s 4s 20 27 mph 1007.6mb 50f 43f
4:50pm 2.5ft 3s 4s 22 27 mph 1007.3mb 50f 43f
3:50pm 2ft 3s 4s 20 25 mph 1007.2mb 50f 43f
2:50pm 1.6ft 11s 4s 18 22 mph 1007.1mb 50f 43f
1:50pm 1.6ft 11s 4s 13 18 mph 1007.3mb 50f 43f
12:50pm 1.6ft 10s 5s 9 11 mph 1007.7mb 50f 44f
11:50am 1.3ft 11s 5s 11 13 mph 1009.3mb 50f 42f
10:50am 1.3ft 10s 4s 11 13 mph 1010.7mb 50f 42f
9:50am 1.3ft 11s 5s 11 13 mph 1012mb 50f 42f
8:50am 1.3ft 11s 5s 11 13 mph 1012.1mb 50f 42f
7:50am 1.3ft 11s 4s 9 11 mph 1012.1mb 50f 42f
6:50am 1.6ft 11s 4s 13 16 mph 1012.2mb 50f 42f
5:50am 1.6ft 11s 4s 13 16 mph 1012.5mb 50f 42f
4:50am 1.6ft 11s 4s 16 18 mph 1012.8mb 50f 42f
3:50am 1.6ft 9s 4s 13 18 mph 1012.6mb 50f 42f
2:50am 2ft 6s 4s 13 16 mph 1013.1mb 50f 42f
Wed 12/07 10:50pm 1.6ft 10s 4s 11 13 mph 1014.2mb 50f 43f
9:50pm 1.6ft 10s 4s 13 16 mph 1014.5mb 50f 43f
8:50pm 1.6ft 10s 5s 11 13 mph 1014.7mb 50f 43f
7:50pm 1.6ft 9s 5s 13 16 mph 1014.6mb 50f 43f
6:50pm 2ft 4s 5s 9 13 mph 1014.8mb 50f 43f
5:50pm 2ft 4s 5s 7 9 mph 1014.5mb 50f 43f
4:50pm 2.5ft 5s 5s 7 9 mph 1014.2mb 50f 43f
3:50pm 2ft 4s 5s 11 13 mph 1013.4mb 50f 42f
2:50pm 2.5ft 4s 5s 7 9 mph 1012.9mb 50f 42f
1:50pm 2.5ft 4s 4s 2 4 mph 1012.8mb 50f 42f
12:50pm 2.5ft 11s 4s 7 9 mph 1013.3mb 50f 42f
11:50am 2.5ft 4s 4s 9 11 mph 1013.7mb 50f 41f
10:50am 2.5ft 4s 5s  -  2 mph 1014.3mb 50f 42f
9:50am 2.5ft 5s 5s 4
mph
1014.3mb 50f 42f
8:50am 2.5ft 4s 4s 4 7 mph 1014mb 50f 41f
7:50am 2.5ft 4s 4s 9 11 mph 1013.4mb 50f 42f
6:50am 2.5ft 4s 4s 13 18 mph 1012.4mb 50f 42f
5:50am 2.5ft 3s 4s 13 16 mph 1012.7mb 50f 42f
4:50am 2.5ft 11s 4s 16 20 mph 1011.5mb 50f 42f
3:50am 2.5ft 11s 4s 16 18 mph 1011.8mb 50f 42f
2:50am 2.5ft 10s 4s 16 20 mph 1012.6mb 50f 42f
1:50am 2.5ft 11s 4s 13 18 mph 1013mb 50f 42f
12:50am 2.5ft 5s 4s 16 18 mph 1012.8mb 51f 42f
Tue 12/06 11:50pm 2.5ft 5s 4s 13 16 mph 1014.1mb 51f 42f
10:50pm 2.5ft 5s 4s 11 13 mph 1014.8mb 51f 43f
9:50pm 2.5ft 6s 4s 11 13 mph 1015.3mb 51f 43f
8:50pm 2.5ft 6s 5s 11 13 mph 1015.7mb 51f 43f
7:50pm 2.5ft 6s 5s 13 18 mph 1015.1mb 50f 43f
6:50pm 2ft 11s 5s 9 11 mph 1015.4mb 50f 43f
5:50pm 2ft 11s 5s 11 13 mph 1015.3mb 50f 42f
3:50pm 2ft 11s 5s 4 9 mph 1016.3mb 50f 41f
2:50pm 2ft 10s 5s 4 7 mph 1016.7mb 50f 42f
1:50pm 2ft 11s 4s 9 11 mph 1017mb 50f 42f
12:50pm 2.5ft 10s 4s 7 11 mph 1017.3mb 50f 42f
11:50am 2.5ft 3s 4s 13 16 mph 1018mb 50f 42f
10:50am 2.5ft 4s 4s 18 20 mph 1018.6mb 50f 41f
9:50am 2.5ft 3s 4s 20 25 mph 1018.9mb 50f 41f
8:50am 2.5ft 3s 4s 20 25 mph 1018.3mb 50f 40f
7:50am 2.5ft 3s 3s 18 22 mph 1018.3mb 50f 40f
6:50am 2.5ft 3s 4s 20 25 mph 1017.8mb 50f 41f
5:50am 2ft 3s 4s 20 25 mph 1017.5mb 50f 41f
4:50am 2.5ft 3s 4s 20 25 mph 1017.1mb 50f 41f
3:50am 2.5ft 3s 4s 20 22 mph 1017mb 50f 41f
2:50am 2.5ft 4s 4s 20 25 mph 1016.5mb 50f 42f
1:50am 2.5ft 4s 4s 20 22 mph 1015.9mb 50f 42f
12:50am 3ft 4s 4s 22 27 mph 1014.5mb 50f 42f
Mon 12/05 11:50pm 3ft 4s 4s 22 27 mph 1013.9mb 50f 43f
10:50pm 3ft 9s 4s 25 29 mph 1013.7mb 50f 43f
9:50pm 3.5ft 4s 4s 27 31 mph 1013.4mb 50f 43f
8:50pm 3.5ft 4s 4s 25 29 mph 1012.8mb 50f 44f
7:50pm 3ft 10s 4s 27 31 mph 1012mb 50f 43f
6:50pm 2.5ft 10s 4s 18 22 mph 1012.4mb 50f 42f
5:50pm 2.5ft 10s 4s 16 20 mph 1012.2mb 50f 42f
4:50pm 2.5ft 8s 4s 18 22 mph 1012.3mb 50f 42f
3:50pm 2.5ft 8s 4s 18 22 mph 1011.8mb 50f 42f
2:50pm 3ft 4s 4s 13 16 mph 1011.6mb 50f 42f
1:50pm 3ft 4s 4s 18 20 mph 1011.4mb 50f 43f
12:50pm 3ft 4s 4s 20 22 mph 1012mb 50f 42f
11:50am 2.5ft 4s 4s 18 22 mph 1013.2mb 50f 41f
10:50am 2.5ft 6s 4s 18 22 mph 1014.6mb 50f 40f
9:50am 2.5ft 5s 4s 16 18 mph 1015.8mb 50f 40f
8:50am 2ft 5s 4s 13 18 mph 1016.6mb 50f 39f
7:50am 1.6ft 5s 5s 7 9 mph 1017.2mb 50f 39f
6:50am 1.6ft 6s 5s 13 18 mph 1017.3mb 50f 41f
5:50am 1.6ft 6s 5s 4 9 mph 1017.8mb 50f 39f
4:50am 2ft 6s 5s 7 11 mph 1019.1mb 50f 39f
3:50am 2ft 6s 5s 4 7 mph 1018.5mb 50f 38f